sensor_id;sensor_type;location;lat;lon;timestamp;temperature;humidity
18189;DHT22;9219;50.396;8.546;2022-09-23T00:01:33;14.20;99.90
18189;DHT22;9219;50.396;8.546;2022-09-23T00:04:01;14.30;99.90
18189;DHT22;9219;50.396;8.546;2022-09-23T00:06:28;14.30;99.90
18189;DHT22;9219;50.396;8.546;2022-09-23T00:08:55;14.30;99.90
18189;DHT22;9219;50.396;8.546;2022-09-23T00:11:42;14.30;99.90
18189;DHT22;9219;50.396;8.546;2022-09-23T00:17:08;14.30;99.90
18189;DHT22;9219;50.396;8.546;2022-09-23T00:19:37;14.20;99.90
18189;DHT22;9219;50.396;8.546;2022-09-23T00:22:06;14.20;99.90
18189;DHT22;9219;50.396;8.546;2022-09-23T00:24:34;14.10;99.90
18189;DHT22;9219;50.396;8.546;2022-09-23T00:27:01;14.20;99.90
18189;DHT22;9219;50.396;8.546;2022-09-23T00:29:28;14.20;99.90
18189;DHT22;9219;50.396;8.546;2022-09-23T00:31:57;14.10;99.90
18189;DHT22;9219;50.396;8.546;2022-09-23T00:34:25;14.20;99.90
18189;DHT22;9219;50.396;8.546;2022-09-23T00:41:57;14.00;99.90
18189;DHT22;9219;50.396;8.546;2022-09-23T00:44:44;14.10;99.90
18189;DHT22;9219;50.396;8.546;2022-09-23T00:47:17;14.00;99.90
18189;DHT22;9219;50.396;8.546;2022-09-23T00:49:47;14.00;99.90
18189;DHT22;9219;50.396;8.546;2022-09-23T00:52:17;14.00;99.90
18189;DHT22;9219;50.396;8.546;2022-09-23T00:54:47;14.10;99.90
18189;DHT22;9219;50.396;8.546;2022-09-23T00:57:16;14.00;99.90
18189;DHT22;9219;50.396;8.546;2022-09-23T00:59:45;14.00;99.90
18189;DHT22;9219;50.396;8.546;2022-09-23T01:07:18;13.90;99.90
18189;DHT22;9219;50.396;8.546;2022-09-23T01:09:47;14.00;99.90
18189;DHT22;9219;50.396;8.546;2022-09-23T01:12:25;13.90;99.90
18189;DHT22;9219;50.396;8.546;2022-09-23T01:15:05;13.90;99.90
18189;DHT22;9219;50.396;8.546;2022-09-23T01:17:39;14.00;99.90
18189;DHT22;9219;50.396;8.546;2022-09-23T01:20:35;13.90;99.90
18189;DHT22;9219;50.396;8.546;2022-09-23T01:23:18;13.80;99.90
18189;DHT22;9219;50.396;8.546;2022-09-23T01:26:12;13.80;99.90
18189;DHT22;9219;50.396;8.546;2022-09-23T01:34:05;13.70;99.90
18189;DHT22;9219;50.396;8.546;2022-09-23T01:36:39;13.70;99.90
18189;DHT22;9219;50.396;8.546;2022-09-23T01:39:13;13.70;99.90
18189;DHT22;9219;50.396;8.546;2022-09-23T01:41:51;13.70;99.90
18189;DHT22;9219;50.396;8.546;2022-09-23T01:44:23;13.60;99.90
18189;DHT22;9219;50.396;8.546;2022-09-23T01:46:56;13.60;99.90
18189;DHT22;9219;50.396;8.546;2022-09-23T01:49:31;13.50;99.90
18189;DHT22;9219;50.396;8.546;2022-09-23T01:52:05;13.60;99.90
18189;DHT22;9219;50.396;8.546;2022-09-23T01:59:45;13.60;99.90
18189;DHT22;9219;50.396;8.546;2022-09-23T02:02:16;13.50;99.90
18189;DHT22;9219;50.396;8.546;2022-09-23T02:04:50;13.40;99.90
18189;DHT22;9219;50.396;8.546;2022-09-23T02:07:23;13.30;99.90
18189;DHT22;9219;50.396;8.546;2022-09-23T02:09:54;13.40;99.90
18189;DHT22;9219;50.396;8.546;2022-09-23T02:12:25;13.40;99.90
18189;DHT22;9219;50.396;8.546;2022-09-23T02:14:59;13.30;99.90
18189;DHT22;9219;50.396;8.546;2022-09-23T02:23:26;13.40;99.90
18189;DHT22;9219;50.396;8.546;2022-09-23T02:26:02;13.30;99.90
18189;DHT22;9219;50.396;8.546;2022-09-23T02:28:44;13.20;99.90
18189;DHT22;9219;50.396;8.546;2022-09-23T02:31:25;13.10;99.90
18189;DHT22;9219;50.396;8.546;2022-09-23T02:34:00;13.20;99.90
18189;DHT22;9219;50.396;8.546;2022-09-23T02:36:37;13.10;99.90
18189;DHT22;9219;50.396;8.546;2022-09-23T02:39:12;13.20;99.90
18189;DHT22;9219;50.396;8.546;2022-09-23T02:46:38;13.00;99.90
18189;DHT22;9219;50.396;8.546;2022-09-23T02:49:09;12.90;99.90
18189;DHT22;9219;50.396;8.546;2022-09-23T02:51:39;12.90;99.90
18189;DHT22;9219;50.396;8.546;2022-09-23T02:54:08;12.80;99.90
18189;DHT22;9219;50.396;8.546;2022-09-23T02:56:36;12.80;99.90
18189;DHT22;9219;50.396;8.546;2022-09-23T02:59:04;12.70;99.90
18189;DHT22;9219;50.396;8.546;2022-09-23T03:01:39;12.80;99.90
18189;DHT22;9219;50.396;8.546;2022-09-23T03:04:16;12.70;99.90
18189;DHT22;9219;50.396;8.546;2022-09-23T03:11:55;12.60;99.90
18189;DHT22;9219;50.396;8.546;2022-09-23T03:14:31;12.70;99.90
18189;DHT22;9219;50.396;8.546;2022-09-23T03:17:03;12.70;99.90
18189;DHT22;9219;50.396;8.546;2022-09-23T03:19:35;12.70;99.90
18189;DHT22;9219;50.396;8.546;2022-09-23T03:22:09;12.70;99.90
18189;DHT22;9219;50.396;8.546;2022-09-23T03:24:40;12.70;99.90
18189;DHT22;9219;50.396;8.546;2022-09-23T03:27:14;12.70;99.90
18189;DHT22;9219;50.396;8.546;2022-09-23T03:32:23;12.70;99.90
18189;DHT22;9219;50.396;8.546;2022-09-23T03:34:56;12.80;99.90
18189;DHT22;9219;50.396;8.546;2022-09-23T03:37:27;12.80;99.90
18189;DHT22;9219;50.396;8.546;2022-09-23T03:40:00;12.80;99.90
18189;DHT22;9219;50.396;8.546;2022-09-23T03:42:30;12.80;99.90
18189;DHT22;9219;50.396;8.546;2022-09-23T03:44:59;12.80;99.90
18189;DHT22;9219;50.396;8.546;2022-09-23T03:47:33;12.80;99.90
18189;DHT22;9219;50.396;8.546;2022-09-23T03:55:09;12.80;99.90
18189;DHT22;9219;50.396;8.546;2022-09-23T03:57:37;12.80;99.90
18189;DHT22;9219;50.396;8.546;2022-09-23T04:00:07;12.80;99.90
18189;DHT22;9219;50.396;8.546;2022-09-23T04:02:35;12.70;99.90
18189;DHT22;9219;50.396;8.546;2022-09-23T04:05:04;12.80;99.90
18189;DHT22;9219;50.396;8.546;2022-09-23T04:07:31;12.70;99.90
18189;DHT22;9219;50.396;8.546;2022-09-23T04:09:59;12.80;99.90
18189;DHT22;9219;50.396;8.546;2022-09-23T04:17:30;12.70;99.90
18189;DHT22;9219;50.396;8.546;2022-09-23T04:19:58;12.70;99.90
18189;DHT22;9219;50.396;8.546;2022-09-23T04:22:25;12.60;99.90
18189;DHT22;9219;50.396;8.546;2022-09-23T04:24:53;12.60;99.90
18189;DHT22;9219;50.396;8.546;2022-09-23T04:27:20;12.60;99.90
18189;DHT22;9219;50.396;8.546;2022-09-23T04:29:47;12.70;99.90
18189;DHT22;9219;50.396;8.546;2022-09-23T04:32:14;12.70;99.90
18189;DHT22;9219;50.396;8.546;2022-09-23T04:42:58;12.70;99.90
18189;DHT22;9219;50.396;8.546;2022-09-23T04:45:25;12.60;99.90
18189;DHT22;9219;50.396;8.546;2022-09-23T04:47:53;12.50;99.90
18189;DHT22;9219;50.396;8.546;2022-09-23T04:50:24;12.50;99.90
18189;DHT22;9219;50.396;8.546;2022-09-23T04:52:53;12.50;99.90
18189;DHT22;9219;50.396;8.546;2022-09-23T04:55:21;12.50;99.90
18189;DHT22;9219;50.396;8.546;2022-09-23T04:57:49;12.40;99.90
18189;DHT22;9219;50.396;8.546;2022-09-23T05:07:39;12.50;99.90
18189;DHT22;9219;50.396;8.546;2022-09-23T05:10:08;12.40;99.90
18189;DHT22;9219;50.396;8.546;2022-09-23T05:12:35;12.40;99.90
18189;DHT22;9219;50.396;8.546;2022-09-23T05:15:03;12.50;99.90
18189;DHT22;9219;50.396;8.546;2022-09-23T05:17:31;12.50;99.90
18189;DHT22;9219;50.396;8.546;2022-09-23T05:20:02;12.50;99.90
18189;DHT22;9219;50.396;8.546;2022-09-23T05:22:30;12.40;99.90
18189;DHT22;9219;50.396;8.546;2022-09-23T05:33:15;12.40;99.90
18189;DHT22;9219;50.396;8.546;2022-09-23T05:35:46;12.40;99.90
18189;DHT22;9219;50.396;8.546;2022-09-23T05:38:13;12.40;99.90
18189;DHT22;9219;50.396;8.546;2022-09-23T05:40:42;12.50;99.90
18189;DHT22;9219;50.396;8.546;2022-09-23T05:43:09;12.50;99.90
18189;DHT22;9219;50.396;8.546;2022-09-23T05:45:37;12.50;99.90
18189;DHT22;9219;50.396;8.546;2022-09-23T05:48:04;12.50;99.90
18189;DHT22;9219;50.396;8.546;2022-09-23T05:57:57;12.60;99.90
18189;DHT22;9219;50.396;8.546;2022-09-23T06:00:25;12.60;99.90
18189;DHT22;9219;50.396;8.546;2022-09-23T06:02:52;12.50;99.90
18189;DHT22;9219;50.396;8.546;2022-09-23T06:05:20;12.50;99.90
18189;DHT22;9219;50.396;8.546;2022-09-23T06:07:47;12.60;99.90
18189;DHT22;9219;50.396;8.546;2022-09-23T06:10:15;12.60;99.90
18189;DHT22;9219;50.396;8.546;2022-09-23T06:12:43;12.50;99.90
18189;DHT22;9219;50.396;8.546;2022-09-23T06:15:13;12.50;99.90
18189;DHT22;9219;50.396;8.546;2022-09-23T06:20:25;12.60;99.90
18189;DHT22;9219;50.396;8.546;2022-09-23T06:22:53;12.70;99.90
18189;DHT22;9219;50.396;8.546;2022-09-23T06:25:21;12.60;99.90
18189;DHT22;9219;50.396;8.546;2022-09-23T06:27:51;12.50;99.90
18189;DHT22;9219;50.396;8.546;2022-09-23T06:30:20;12.40;99.90
18189;DHT22;9219;50.396;8.546;2022-09-23T06:32:50;12.50;99.90
18189;DHT22;9219;50.396;8.546;2022-09-23T06:35:18;12.40;99.90
18189;DHT22;9219;50.396;8.546;2022-09-23T06:37:54;12.50;99.90
18189;DHT22;9219;50.396;8.546;2022-09-23T06:45:27;12.30;99.90
18189;DHT22;9219;50.396;8.546;2022-09-23T06:47:55;12.30;99.90
18189;DHT22;9219;50.396;8.546;2022-09-23T06:50:24;12.50;99.90
18189;DHT22;9219;50.396;8.546;2022-09-23T06:52:52;12.40;99.90
18189;DHT22;9219;50.396;8.546;2022-09-23T06:55:22;12.50;99.90
18189;DHT22;9219;50.396;8.546;2022-09-23T06:57:53;12.50;99.90
18189;DHT22;9219;50.396;8.546;2022-09-23T07:00:20;12.60;99.90
18189;DHT22;9219;50.396;8.546;2022-09-23T07:08:20;12.70;99.90
18189;DHT22;9219;50.396;8.546;2022-09-23T07:10:50;12.70;99.90
18189;DHT22;9219;50.396;8.546;2022-09-23T07:13:18;12.70;99.90
18189;DHT22;9219;50.396;8.546;2022-09-23T07:15:48;12.80;99.90
18189;DHT22;9219;50.396;8.546;2022-09-23T07:18:16;12.70;99.90
18189;DHT22;9219;50.396;8.546;2022-09-23T07:20:43;12.70;99.90
18189;DHT22;9219;50.396;8.546;2022-09-23T07:23:11;12.80;99.90
18189;DHT22;9219;50.396;8.546;2022-09-23T07:25:39;12.90;99.90
18189;DHT22;9219;50.396;8.546;2022-09-23T07:33:10;12.90;99.90
18189;DHT22;9219;50.396;8.546;2022-09-23T07:35:57;13.00;99.90
18189;DHT22;9219;50.396;8.546;2022-09-23T07:38:24;13.00;99.90
18189;DHT22;9219;50.396;8.546;2022-09-23T07:41:00;13.00;99.90
18189;DHT22;9219;50.396;8.546;2022-09-23T07:43:28;13.00;99.90
18189;DHT22;9219;50.396;8.546;2022-09-23T07:45:59;12.90;99.90
18189;DHT22;9219;50.396;8.546;2022-09-23T07:48:29;13.10;99.90
18189;DHT22;9219;50.396;8.546;2022-09-23T07:51:05;13.30;99.90
18189;DHT22;9219;50.396;8.546;2022-09-23T07:58:37;13.50;99.90
18189;DHT22;9219;50.396;8.546;2022-09-23T08:01:07;13.80;99.90
18189;DHT22;9219;50.396;8.546;2022-09-23T08:03:35;13.90;99.90
18189;DHT22;9219;50.396;8.546;2022-09-23T08:06:05;13.90;99.90
18189;DHT22;9219;50.396;8.546;2022-09-23T08:08:33;14.10;99.90
18189;DHT22;9219;50.396;8.546;2022-09-23T08:11:02;14.20;99.90
18189;DHT22;9219;50.396;8.546;2022-09-23T08:13:31;14.40;99.90
18189;DHT22;9219;50.396;8.546;2022-09-23T08:16:00;14.60;99.90
18189;DHT22;9219;50.396;8.546;2022-09-23T08:25:55;15.10;99.90
18189;DHT22;9219;50.396;8.546;2022-09-23T08:28:25;15.30;99.90
18189;DHT22;9219;50.396;8.546;2022-09-23T08:30:54;15.40;99.90
18189;DHT22;9219;50.396;8.546;2022-09-23T08:33:33;15.60;99.90
18189;DHT22;9219;50.396;8.546;2022-09-23T08:36:01;15.90;99.90
18189;DHT22;9219;50.396;8.546;2022-09-23T08:38:29;16.10;99.90
18189;DHT22;9219;50.396;8.546;2022-09-23T08:41:06;16.30;99.90
18189;DHT22;9219;50.396;8.546;2022-09-23T08:43:36;16.50;99.90
18189;DHT22;9219;50.396;8.546;2022-09-23T08:51:13;16.70;99.90
18189;DHT22;9219;50.396;8.546;2022-09-23T08:53:42;17.10;99.90
18189;DHT22;9219;50.396;8.546;2022-09-23T08:56:13;17.30;99.90
18189;DHT22;9219;50.396;8.546;2022-09-23T08:58:54;17.50;99.90
18189;DHT22;9219;50.396;8.546;2022-09-23T09:01:25;17.70;99.90
18189;DHT22;9219;50.396;8.546;2022-09-23T09:03:55;17.60;99.90
18189;DHT22;9219;50.396;8.546;2022-09-23T09:06:35;17.70;99.90
18189;DHT22;9219;50.396;8.546;2022-09-23T09:09:24;17.60;99.90
18189;DHT22;9219;50.396;8.546;2022-09-23T09:17:10;18.10;99.90
18189;DHT22;9219;50.396;8.546;2022-09-23T09:19:53;18.40;99.90
18189;DHT22;9219;50.396;8.546;2022-09-23T09:22:26;18.40;99.90
18189;DHT22;9219;50.396;8.546;2022-09-23T09:25:04;18.60;99.90
18189;DHT22;9219;50.396;8.546;2022-09-23T09:27:37;18.60;99.90
18189;DHT22;9219;50.396;8.546;2022-09-23T09:30:11;18.70;99.90
18189;DHT22;9219;50.396;8.546;2022-09-23T09:32:45;18.90;99.90
18189;DHT22;9219;50.396;8.546;2022-09-23T09:40:24;19.20;99.90
18189;DHT22;9219;50.396;8.546;2022-09-23T09:42:52;19.60;99.90
18189;DHT22;9219;50.396;8.546;2022-09-23T09:45:27;19.60;99.90
18189;DHT22;9219;50.396;8.546;2022-09-23T09:48:04;19.90;99.90
18189;DHT22;9219;50.396;8.546;2022-09-23T09:50:46;20.10;99.90
18189;DHT22;9219;50.396;8.546;2022-09-23T09:53:23;20.30;99.90
18189;DHT22;9219;50.396;8.546;2022-09-23T09:56:07;20.40;99.90
18189;DHT22;9219;50.396;8.546;2022-09-23T10:04:22;20.40;99.90
18189;DHT22;9219;50.396;8.546;2022-09-23T10:07:04;20.30;99.90
18189;DHT22;9219;50.396;8.546;2022-09-23T10:09:34;20.30;99.90
18189;DHT22;9219;50.396;8.546;2022-09-23T10:12:11;20.40;99.90
18189;DHT22;9219;50.396;8.546;2022-09-23T10:14:41;20.50;99.90
18189;DHT22;9219;50.396;8.546;2022-09-23T10:17:16;20.90;99.90
18189;DHT22;9219;50.396;8.546;2022-09-23T10:19:48;21.20;99.90
18189;DHT22;9219;50.396;8.546;2022-09-23T10:25:00;21.40;99.90
18189;DHT22;9219;50.396;8.546;2022-09-23T10:27:31;21.70;99.90
18189;DHT22;9219;50.396;8.546;2022-09-23T10:30:01;21.90;99.90
18189;DHT22;9219;50.396;8.546;2022-09-23T10:32:31;21.90;99.90
18189;DHT22;9219;50.396;8.546;2022-09-23T10:35:11;21.90;99.90
18189;DHT22;9219;50.396;8.546;2022-09-23T10:37:40;22.10;99.90
18189;DHT22;9219;50.396;8.546;2022-09-23T10:40:16;22.10;99.90
18189;DHT22;9219;50.396;8.546;2022-09-23T10:43:19;22.10;99.90
18189;DHT22;9219;50.396;8.546;2022-09-23T10:50:01;22.60;99.90
18189;DHT22;9219;50.396;8.546;2022-09-23T10:52:43;22.80;99.90
18189;DHT22;9219;50.396;8.546;2022-09-23T10:55:24;22.90;99.90
18189;DHT22;9219;50.396;8.546;2022-09-23T10:58:13;22.90;99.90
18189;DHT22;9219;50.396;8.546;2022-09-23T11:00:50;22.90;99.90
18189;DHT22;9219;50.396;8.546;2022-09-23T11:06:24;22.50;99.90
18189;DHT22;9219;50.396;8.546;2022-09-23T11:14:10;22.90;99.90
18189;DHT22;9219;50.396;8.546;2022-09-23T11:16:52;22.90;99.90
18189;DHT22;9219;50.396;8.546;2022-09-23T11:20:02;22.70;99.90
18189;DHT22;9219;50.396;8.546;2022-09-23T11:22:54;22.90;99.90
18189;DHT22;9219;50.396;8.546;2022-09-23T11:25:33;23.00;99.90
18189;DHT22;9219;50.396;8.546;2022-09-23T11:28:19;22.90;99.90
18189;DHT22;9219;50.396;8.546;2022-09-23T11:31:04;22.80;99.90
18189;DHT22;9219;50.396;8.546;2022-09-23T11:38:48;22.90;99.90
18189;DHT22;9219;50.396;8.546;2022-09-23T11:41:20;22.70;99.90
18189;DHT22;9219;50.396;8.546;2022-09-23T11:43:50;22.80;99.90
18189;DHT22;9219;50.396;8.546;2022-09-23T11:46:28;22.90;99.90
18189;DHT22;9219;50.396;8.546;2022-09-23T11:49:02;23.10;99.90
18189;DHT22;9219;50.396;8.546;2022-09-23T11:51:35;23.20;99.90
18189;DHT22;9219;50.396;8.546;2022-09-23T11:54:14;23.30;99.90
18189;DHT22;9219;50.396;8.546;2022-09-23T11:59:59;23.40;99.90
18189;DHT22;9219;50.396;8.546;2022-09-23T12:02:43;23.40;99.90
18189;DHT22;9219;50.396;8.546;2022-09-23T12:05:33;23.50;99.90
18189;DHT22;9219;50.396;8.546;2022-09-23T12:08:08;23.50;99.90
18189;DHT22;9219;50.396;8.546;2022-09-23T12:10:43;23.30;99.90
18189;DHT22;9219;50.396;8.546;2022-09-23T12:13:17;23.20;99.90
18189;DHT22;9219;50.396;8.546;2022-09-23T12:15:57;23.20;99.90
18189;DHT22;9219;50.396;8.546;2022-09-23T12:24:24;23.10;99.90
18189;DHT22;9219;50.396;8.546;2022-09-23T12:26:55;23.20;99.90
18189;DHT22;9219;50.396;8.546;2022-09-23T12:29:26;23.10;99.90
18189;DHT22;9219;50.396;8.546;2022-09-23T12:32:00;23.00;99.90
18189;DHT22;9219;50.396;8.546;2022-09-23T12:34:39;23.00;99.90
18189;DHT22;9219;50.396;8.546;2022-09-23T12:37:23;22.90;99.90
18189;DHT22;9219;50.396;8.546;2022-09-23T12:39:58;22.90;99.90
18189;DHT22;9219;50.396;8.546;2022-09-23T12:42:27;23.00;99.90
18189;DHT22;9219;50.396;8.546;2022-09-23T12:50:46;23.10;99.90
18189;DHT22;9219;50.396;8.546;2022-09-23T12:53:50;23.00;99.90
18189;DHT22;9219;50.396;8.546;2022-09-23T12:56:20;23.00;99.90
18189;DHT22;9219;50.396;8.546;2022-09-23T12:59:20;23.10;99.90
18189;DHT22;9219;50.396;8.546;2022-09-23T13:01:50;22.90;99.90
18189;DHT22;9219;50.396;8.546;2022-09-23T13:04:30;23.00;99.90
18189;DHT22;9219;50.396;8.546;2022-09-23T13:07:21;23.00;99.90
18189;DHT22;9219;50.396;8.546;2022-09-23T13:12:59;22.90;99.90
18189;DHT22;9219;50.396;8.546;2022-09-23T13:15:30;22.80;99.90
18189;DHT22;9219;50.396;8.546;2022-09-23T13:18:28;22.80;99.90
18189;DHT22;9219;50.396;8.546;2022-09-23T13:21:51;22.50;99.90
18189;DHT22;9219;50.396;8.546;2022-09-23T13:24:19;22.30;99.90
18189;DHT22;9219;50.396;8.546;2022-09-23T13:27:04;22.10;99.90
18189;DHT22;9219;50.396;8.546;2022-09-23T13:34:37;22.20;99.90
18189;DHT22;9219;50.396;8.546;2022-09-23T13:37:16;21.90;99.90
18189;DHT22;9219;50.396;8.546;2022-09-23T13:39:48;22.00;99.90
18189;DHT22;9219;50.396;8.546;2022-09-23T13:42:23;22.30;99.90
18189;DHT22;9219;50.396;8.546;2022-09-23T13:44:53;22.20;99.90
18189;DHT22;9219;50.396;8.546;2022-09-23T13:47:26;22.20;99.90
18189;DHT22;9219;50.396;8.546;2022-09-23T13:49:57;22.10;99.90
18189;DHT22;9219;50.396;8.546;2022-09-23T13:52:26;22.10;99.90
18189;DHT22;9219;50.396;8.546;2022-09-23T14:00:16;22.20;99.90
18189;DHT22;9219;50.396;8.546;2022-09-23T14:02:44;21.90;99.90
18189;DHT22;9219;50.396;8.546;2022-09-23T14:05:20;21.80;99.90
18189;DHT22;9219;50.396;8.546;2022-09-23T14:07:48;21.60;99.90
18189;DHT22;9219;50.396;8.546;2022-09-23T14:10:17;21.70;99.90
18189;DHT22;9219;50.396;8.546;2022-09-23T14:12:47;21.70;99.90
18189;DHT22;9219;50.396;8.546;2022-09-23T14:15:19;21.50;99.90
18189;DHT22;9219;50.396;8.546;2022-09-23T14:17:51;21.60;99.90
18189;DHT22;9219;50.396;8.546;2022-09-23T14:23:30;21.60;99.90
18189;DHT22;9219;50.396;8.546;2022-09-23T14:26:00;21.70;99.90
18189;DHT22;9219;50.396;8.546;2022-09-23T14:28:30;21.60;99.90
18189;DHT22;9219;50.396;8.546;2022-09-23T14:31:01;21.40;99.90
18189;DHT22;9219;50.396;8.546;2022-09-23T14:33:32;21.50;99.90
18189;DHT22;9219;50.396;8.546;2022-09-23T14:36:06;21.50;99.90
18189;DHT22;9219;50.396;8.546;2022-09-23T14:39:02;21.50;99.90
18189;DHT22;9219;50.396;8.546;2022-09-23T14:44:37;21.60;99.90
18189;DHT22;9219;50.396;8.546;2022-09-23T14:47:05;21.40;99.90
18189;DHT22;9219;50.396;8.546;2022-09-23T14:49:38;21.50;99.90
18189;DHT22;9219;50.396;8.546;2022-09-23T14:52:33;21.30;99.90
18189;DHT22;9219;50.396;8.546;2022-09-23T14:55:01;21.10;99.90
18189;DHT22;9219;50.396;8.546;2022-09-23T14:57:29;20.80;99.90
18189;DHT22;9219;50.396;8.546;2022-09-23T15:00:00;20.90;99.90
18189;DHT22;9219;50.396;8.546;2022-09-23T15:07:39;20.70;99.90
18189;DHT22;9219;50.396;8.546;2022-09-23T15:10:12;20.90;99.90
18189;DHT22;9219;50.396;8.546;2022-09-23T15:12:44;20.90;99.90
18189;DHT22;9219;50.396;8.546;2022-09-23T15:15:16;20.90;99.90
18189;DHT22;9219;50.396;8.546;2022-09-23T15:17:45;21.10;99.90
18189;DHT22;9219;50.396;8.546;2022-09-23T15:20:23;20.70;99.90
18189;DHT22;9219;50.396;8.546;2022-09-23T15:22:55;20.60;99.90
18189;DHT22;9219;50.396;8.546;2022-09-23T15:28:17;20.80;99.90
18189;DHT22;9219;50.396;8.546;2022-09-23T15:30:49;21.20;99.90
18189;DHT22;9219;50.396;8.546;2022-09-23T15:33:18;21.20;99.90
18189;DHT22;9219;50.396;8.546;2022-09-23T15:35:53;21.30;99.90
18189;DHT22;9219;50.396;8.546;2022-09-23T15:38:23;21.20;99.90
18189;DHT22;9219;50.396;8.546;2022-09-23T15:40:52;21.30;99.90
18189;DHT22;9219;50.396;8.546;2022-09-23T15:43:23;21.40;99.90
18189;DHT22;9219;50.396;8.546;2022-09-23T15:51:02;21.10;99.90
18189;DHT22;9219;50.396;8.546;2022-09-23T15:53:33;21.10;99.90
18189;DHT22;9219;50.396;8.546;2022-09-23T15:56:03;21.20;99.90
18189;DHT22;9219;50.396;8.546;2022-09-23T15:58:33;21.50;99.90
18189;DHT22;9219;50.396;8.546;2022-09-23T16:01:05;21.20;99.90
18189;DHT22;9219;50.396;8.546;2022-09-23T16:03:33;21.00;99.90
18189;DHT22;9219;50.396;8.546;2022-09-23T16:06:02;21.00;99.90
18189;DHT22;9219;50.396;8.546;2022-09-23T16:08:31;20.90;99.90
18189;DHT22;9219;50.396;8.546;2022-09-23T16:16:11;20.90;99.90
18189;DHT22;9219;50.396;8.546;2022-09-23T16:18:39;20.90;99.90
18189;DHT22;9219;50.396;8.546;2022-09-23T16:21:10;20.90;99.90
18189;DHT22;9219;50.396;8.546;2022-09-23T16:23:41;20.90;99.90
18189;DHT22;9219;50.396;8.546;2022-09-23T16:26:14;20.90;99.90
18189;DHT22;9219;50.396;8.546;2022-09-23T16:28:43;20.90;99.90
18189;DHT22;9219;50.396;8.546;2022-09-23T16:31:12;20.90;99.90
18189;DHT22;9219;50.396;8.546;2022-09-23T16:38:08;20.90;99.90
18189;DHT22;9219;50.396;8.546;2022-09-23T16:40:35;20.90;99.90
18189;DHT22;9219;50.396;8.546;2022-09-23T16:43:02;20.90;99.90
18189;DHT22;9219;50.396;8.546;2022-09-23T16:45:31;20.80;99.90
18189;DHT22;9219;50.396;8.546;2022-09-23T16:47:58;20.80;99.90
18189;DHT22;9219;50.396;8.546;2022-09-23T16:50:26;20.80;99.90
18189;DHT22;9219;50.396;8.546;2022-09-23T16:52:55;20.80;99.90
18189;DHT22;9219;50.396;8.546;2022-09-23T16:59:59;20.70;99.90
18189;DHT22;9219;50.396;8.546;2022-09-23T17:02:45;20.70;99.90
18189;DHT22;9219;50.396;8.546;2022-09-23T17:05:30;20.60;99.90
18189;DHT22;9219;50.396;8.546;2022-09-23T17:07:58;20.60;99.90
18189;DHT22;9219;50.396;8.546;2022-09-23T17:10:25;20.50;99.90
18189;DHT22;9219;50.396;8.546;2022-09-23T17:12:53;20.50;99.90
18189;DHT22;9219;50.396;8.546;2022-09-23T17:15:22;20.60;99.90
18189;DHT22;9219;50.396;8.546;2022-09-23T17:20:59;20.40;99.90
18189;DHT22;9219;50.396;8.546;2022-09-23T17:23:30;20.40;99.90
18189;DHT22;9219;50.396;8.546;2022-09-23T17:25:59;20.20;99.90
18189;DHT22;9219;50.396;8.546;2022-09-23T17:28:27;20.00;99.90
18189;DHT22;9219;50.396;8.546;2022-09-23T17:30:55;20.00;99.90
18189;DHT22;9219;50.396;8.546;2022-09-23T17:33:24;19.80;99.90
18189;DHT22;9219;50.396;8.546;2022-09-23T17:35:52;19.60;99.90
18189;DHT22;9219;50.396;8.546;2022-09-23T17:42:54;20.00;99.90
18189;DHT22;9219;50.396;8.546;2022-09-23T17:45:22;19.70;99.90
18189;DHT22;9219;50.396;8.546;2022-09-23T17:47:52;19.70;99.90
18189;DHT22;9219;50.396;8.546;2022-09-23T17:50:20;19.50;99.90
18189;DHT22;9219;50.396;8.546;2022-09-23T17:52:48;19.00;99.90
18189;DHT22;9219;50.396;8.546;2022-09-23T17:55:15;18.70;99.90
18189;DHT22;9219;50.396;8.546;2022-09-23T17:57:43;18.80;99.90
18189;DHT22;9219;50.396;8.546;2022-09-23T18:03:00;19.10;99.90
18189;DHT22;9219;50.396;8.546;2022-09-23T18:05:28;19.10;99.90
18189;DHT22;9219;50.396;8.546;2022-09-23T18:07:56;18.90;99.90
18189;DHT22;9219;50.396;8.546;2022-09-23T18:10:23;18.70;99.90
18189;DHT22;9219;50.396;8.546;2022-09-23T18:12:52;18.60;99.90
18189;DHT22;9219;50.396;8.546;2022-09-23T18:15:19;18.80;99.90
18189;DHT22;9219;50.396;8.546;2022-09-23T18:17:49;18.90;99.90
18189;DHT22;9219;50.396;8.546;2022-09-23T18:25:03;18.50;99.90
18189;DHT22;9219;50.396;8.546;2022-09-23T18:27:51;18.20;99.90
18189;DHT22;9219;50.396;8.546;2022-09-23T18:30:18;18.10;99.90
18189;DHT22;9219;50.396;8.546;2022-09-23T18:32:46;18.10;99.90
18189;DHT22;9219;50.396;8.546;2022-09-23T18:35:14;18.10;99.90
18189;DHT22;9219;50.396;8.546;2022-09-23T18:37:42;18.20;99.90
18189;DHT22;9219;50.396;8.546;2022-09-23T18:40:11;18.20;99.90
18189;DHT22;9219;50.396;8.546;2022-09-23T18:47:42;18.20;99.90
18189;DHT22;9219;50.396;8.546;2022-09-23T18:50:28;18.20;99.90
18189;DHT22;9219;50.396;8.546;2022-09-23T18:53:10;18.20;99.90
18189;DHT22;9219;50.396;8.546;2022-09-23T18:55:37;18.20;99.90
18189;DHT22;9219;50.396;8.546;2022-09-23T18:58:06;18.30;99.90
18189;DHT22;9219;50.396;8.546;2022-09-23T19:00:33;18.30;99.90
18189;DHT22;9219;50.396;8.546;2022-09-23T19:03:02;18.20;99.90
18189;DHT22;9219;50.396;8.546;2022-09-23T19:09:58;18.30;99.90
18189;DHT22;9219;50.396;8.546;2022-09-23T19:12:30;18.20;99.90
18189;DHT22;9219;50.396;8.546;2022-09-23T19:15:03;18.20;99.90
18189;DHT22;9219;50.396;8.546;2022-09-23T19:17:32;18.10;99.90
18189;DHT22;9219;50.396;8.546;2022-09-23T19:20:03;18.00;99.90
18189;DHT22;9219;50.396;8.546;2022-09-23T19:22:31;17.90;99.90
18189;DHT22;9219;50.396;8.546;2022-09-23T19:25:03;17.90;99.90
18189;DHT22;9219;50.396;8.546;2022-09-23T19:30:19;17.80;99.90
18189;DHT22;9219;50.396;8.546;2022-09-23T19:32:51;17.90;99.90
18189;DHT22;9219;50.396;8.546;2022-09-23T19:35:18;17.80;99.90
18189;DHT22;9219;50.396;8.546;2022-09-23T19:37:46;17.70;99.90
18189;DHT22;9219;50.396;8.546;2022-09-23T19:40:16;17.70;99.90
18189;DHT22;9219;50.396;8.546;2022-09-23T19:42:45;17.70;99.90
18189;DHT22;9219;50.396;8.546;2022-09-23T19:45:13;17.70;99.90
18189;DHT22;9219;50.396;8.546;2022-09-23T19:51:47;17.70;99.90
18189;DHT22;9219;50.396;8.546;2022-09-23T19:54:23;17.70;99.90
18189;DHT22;9219;50.396;8.546;2022-09-23T19:56:54;17.60;99.90
18189;DHT22;9219;50.396;8.546;2022-09-23T19:59:30;17.70;99.90
18189;DHT22;9219;50.396;8.546;2022-09-23T20:02:00;17.60;99.90
18189;DHT22;9219;50.396;8.546;2022-09-23T20:04:29;17.50;99.90
18189;DHT22;9219;50.396;8.546;2022-09-23T20:07:02;17.50;99.90
18189;DHT22;9219;50.396;8.546;2022-09-23T20:14:40;17.50;99.90
18189;DHT22;9219;50.396;8.546;2022-09-23T20:17:07;17.40;99.90
18189;DHT22;9219;50.396;8.546;2022-09-23T20:19:35;17.50;99.90
18189;DHT22;9219;50.396;8.546;2022-09-23T20:22:03;17.50;99.90
18189;DHT22;9219;50.396;8.546;2022-09-23T20:24:49;17.50;99.90
18189;DHT22;9219;50.396;8.546;2022-09-23T20:27:18;17.40;99.90
18189;DHT22;9219;50.396;8.546;2022-09-23T20:32:37;17.40;99.90
18189;DHT22;9219;50.396;8.546;2022-09-23T20:35:10;17.40;99.90